Bear Mountain Bridge — 3FBQ5 — position and weather

sailwx.info

Track history (hours):
 
Tides and Currents Weather Stations Pressure Air Temp Water Temp Dewpoint Dewpoint Depression Visibility Wind Speed Wind Dir Waves Ship Positions

Bear Mountain Bridge

Last reported at 2017-Nov-17 22:00 UTC. Time now 2017-Nov-19 10:48 UTC.
Position N 44°42' W 160°06'.

Length 267 m; draft 11.2 m.

Type: Cargo ship. MMSI: 354942000.

Wind from 050 at 21 knots

Barometer 1030.0 mb
Air temperature 11.0 ° C
Visibility: greater than 5.4 NM
Dewpoint 9.0 ° C
Water temperature 18.0 ° C

Date/timePositionNaut miles runAvg speedWind from/ knotsBaromVisibWave heightAir tempDewpointWater temp
2017-Nov-17 22:00N 44°42' W 160°06'82016.4 050 / 211030.0 5.4 11.0 9.018.0
2017-Nov-15 20:00N 45°12' W 179°24'   030 / 201036.0 5.4 9.0 8.017.0
2017-Nov-11 12:30N 34°45' E 139°52'1016.5
2017-Nov-11 11:55N 34°48' E 139°41'818.6
2017-Nov-11 11:30N 34°56' E 139°38'1019.6
2017-Nov-11 11:00N 35°05' E 139°43'816.7
2017-Nov-11 10:31N 35°13' E 139°46'612.4
2017-Nov-11 10:01N 35°18' E 139°44'612.9
2017-Nov-11 09:31N 35°25' E 139°43'816.1
2017-Nov-11 09:00N 35°30' E 139°51'713.1
2017-Nov-11 08:30N 35°36' E 139°47'1 2.1
2017-Nov-11 07:54N 35°37' E 139°46'0 0.0
2017-Nov-11 07:30N 35°37' E 139°46'0 0.0
2017-Nov-11 03:00N 35°37' E 139°46'0 0.0
2017-Nov-11 01:51N 35°37' E 139°46'0 0.0
2017-Nov-11 01:27N 35°37' E 139°46'0 0.0
2017-Nov-10 22:45N 35°37' E 139°46'0 0.2
2017-Nov-10 22:29N 35°37' E 139°46'2 3.6
2017-Nov-10 22:00N 35°35' E 139°47'611.3
2017-Nov-10 21:30N 35°31' E 139°52'612.5
2017-Nov-10 21:00N 35°26' E 139°48'713.4
2017-Nov-10 20:30N 35°20' E 139°44'611.8
2017-Nov-10 20:00N 35°14' E 139°47'611.0
2017-Nov-10 19:30N 35°09' E 139°47'510.1
2017-Nov-10 19:00N 35°04' E 139°45'611.4
2017-Nov-10 18:30N 35°00' E 139°40'612.7
2017-Nov-10 18:00N 34°57' E 139°33'713.9
2017-Nov-10 17:30N 34°53' E 139°26'714.5
2017-Nov-10 17:00N 34°49' E 139°19'  
2017-Nov-08 09:29N 34°07' E 134°57'815.8
2017-Nov-08 09:00N 34°15' E 134°58'917.2
2017-Nov-08 08:29N 34°23' E 135°02'918.6
2017-Nov-08 08:00N 34°29' E 135°09'918.0
2017-Nov-08 07:30N 34°36' E 135°15'4 8.1
2017-Nov-08 06:59N 34°41' E 135°16'0 0.1
2017-Nov-08 06:23N 34°41' E 135°16'0 0.0
2017-Nov-08 05:59N 34°41' E 135°16'0 0.0
2017-Nov-08 05:29N 34°41' E 135°16'0 0.0
2017-Nov-08 04:52N 34°41' E 135°16'0 0.0
2017-Nov-08 04:17N 34°41' E 135°16'0 0.0
2017-Nov-08 03:46N 34°41' E 135°16'0 0.0
2017-Nov-08 03:23N 34°41' E 135°16'0 0.1
2017-Nov-08 02:59N 34°41' E 135°16'0 0.0
2017-Nov-08 02:29N 34°41' E 135°16'0 0.1
2017-Nov-08 01:58N 34°41' E 135°16'0 0.0
2017-Nov-08 01:29N 34°41' E 135°16'0 0.0
2017-Nov-08 00:59N 34°41' E 135°16'0 0.0
2017-Nov-08 00:29N 34°41' E 135°16'0 0.0
2017-Nov-07 23:59N 34°41' E 135°16'0 0.0
2017-Nov-07 23:29N 34°41' E 135°16'0 0.0
2017-Nov-07 22:53N 34°41' E 135°16'0 0.0
2017-Nov-07 22:28N 34°41' E 135°16'  
Track history (hours):
 
Tides and Currents Weather Stations Pressure Air Temp Water Temp Dewpoint Dewpoint Depression Visibility Wind Speed Wind Dir Waves Ship Positions

Bear Mountain Bridge

Last reported at 2017-Nov-17 22:00 UTC. Time now 2017-Nov-19 10:48 UTC.
Position N 44°42' W 160°06'.

Length 267 m; draft 11.2 m.

Type: Cargo ship. MMSI: 354942000.

Wind from 050 at 21 knots

Barometer 1030.0 mb
Air temperature 11.0 ° C
Visibility: greater than 5.4 NM
Dewpoint 9.0 ° C
Water temperature 18.0 ° C

Date/timePositionNaut miles runAvg speedWind from/ knotsBaromVisibWave heightAir tempDewpointWater temp
2017-Nov-17 22:00N 44°42' W 160°06'82016.4 050 / 211030.0 5.4 11.0 9.018.0
2017-Nov-15 20:00N 45°12' W 179°24'   030 / 201036.0 5.4 9.0 8.017.0
2017-Nov-11 12:30N 34°45' E 139°52'1016.5
2017-Nov-11 11:55N 34°48' E 139°41'818.6
2017-Nov-11 11:30N 34°56' E 139°38'1019.6
2017-Nov-11 11:00N 35°05' E 139°43'816.7
2017-Nov-11 10:31N 35°13' E 139°46'612.4
2017-Nov-11 10:01N 35°18' E 139°44'612.9
2017-Nov-11 09:31N 35°25' E 139°43'816.1
2017-Nov-11 09:00N 35°30' E 139°51'713.1
2017-Nov-11 08:30N 35°36' E 139°47'1 2.1
2017-Nov-11 07:54N 35°37' E 139°46'0 0.0
2017-Nov-11 07:30N 35°37' E 139°46'0 0.0
2017-Nov-11 03:00N 35°37' E 139°46'0 0.0
2017-Nov-11 01:51N 35°37' E 139°46'0 0.0
2017-Nov-11 01:27N 35°37' E 139°46'0 0.0
2017-Nov-10 22:45N 35°37' E 139°46'0 0.2
2017-Nov-10 22:29N 35°37' E 139°46'2 3.6
2017-Nov-10 22:00N 35°35' E 139°47'611.3
2017-Nov-10 21:30N 35°31' E 139°52'612.5
2017-Nov-10 21:00N 35°26' E 139°48'713.4
2017-Nov-10 20:30N 35°20' E 139°44'611.8
2017-Nov-10 20:00N 35°14' E 139°47'611.0
2017-Nov-10 19:30N 35°09' E 139°47'510.1
2017-Nov-10 19:00N 35°04' E 139°45'611.4
2017-Nov-10 18:30N 35°00' E 139°40'612.7
2017-Nov-10 18:00N 34°57' E 139°33'713.9
2017-Nov-10 17:30N 34°53' E 139°26'714.5
2017-Nov-10 17:00N 34°49' E 139°19'  
2017-Nov-08 09:29N 34°07' E 134°57'815.8
2017-Nov-08 09:00N 34°15' E 134°58'917.2
2017-Nov-08 08:29N 34°23' E 135°02'918.6
2017-Nov-08 08:00N 34°29' E 135°09'918.0
2017-Nov-08 07:30N 34°36' E 135°15'4 8.1
2017-Nov-08 06:59N 34°41' E 135°16'0 0.1
2017-Nov-08 06:23N 34°41' E 135°16'0 0.0
2017-Nov-08 05:59N 34°41' E 135°16'0 0.0
2017-Nov-08 05:29N 34°41' E 135°16'0 0.0
2017-Nov-08 04:52N 34°41' E 135°16'0 0.0
2017-Nov-08 04:17N 34°41' E 135°16'0 0.0
2017-Nov-08 03:46N 34°41' E 135°16'0 0.0
2017-Nov-08 03:23N 34°41' E 135°16'0 0.1
2017-Nov-08 02:59N 34°41' E 135°16'0 0.0
2017-Nov-08 02:29N 34°41' E 135°16'0 0.1
2017-Nov-08 01:58N 34°41' E 135°16'0 0.0
2017-Nov-08 01:29N 34°41' E 135°16'0 0.0
2017-Nov-08 00:59N 34°41' E 135°16'0 0.0
2017-Nov-08 00:29N 34°41' E 135°16'0 0.0
2017-Nov-07 23:59N 34°41' E 135°16'0 0.0
2017-Nov-07 23:29N 34°41' E 135°16'0 0.0
2017-Nov-07 22:53N 34°41' E 135°16'0 0.0
2017-Nov-07 22:28N 34°41' E 135°16'  

Dump ship's entire track history